Time;durP1;ratioP1;P1;durP2;ratioP2;P2;SDS_P1;SDS_P2;PMS_P1;PMS_P2;Temp;Humidity;BMP_temperature;BMP_pressure;BME280_temperature;BME280_humidity;BME280_pressure;Samples;Min_cycle;Max_cycle;Signal;HPM_P1;HPM_P2
2021/01/21 00:00:43;;;;;;;2.90;1.23;;;10.00;93.70;;;;;;5005118;28;20193;-77
2021/01/21 00:03:09;;;;;;;3.20;1.23;;;10.00;93.50;;;;;;5002755;28;20244;-77
2021/01/21 00:05:35;;;;;;;2.17;1.43;;;10.10;92.90;;;;;;5011842;28;20244;-77
2021/01/21 00:08:00;;;;;;;1.60;1.43;;;10.20;92.40;;;;;;4993750;28;20219;-78
2021/01/21 00:10:26;;;;;;;7.10;1.73;;;10.20;92.60;;;;;;5005033;28;20288;-78
2021/01/21 00:12:52;;;;;;;2.80;1.70;;;10.20;92.70;;;;;;5002138;28;20217;-77
2021/01/21 00:15:18;;;;;;;2.60;1.67;;;10.20;92.60;;;;;;4998031;28;20207;-78
2021/01/21 00:17:44;;;;;;;2.03;1.50;;;10.20;92.30;;;;;;5007151;28;20673;-77
2021/01/21 00:20:11;;;;;;;4.40;1.30;;;10.10;92.60;;;;;;4995762;28;20202;-78
2021/01/21 00:22:37;;;;;;;7.40;3.05;;;10.20;92.00;;;;;;4976816;28;20900;-78
2021/01/21 00:25:04;;;;;;;2.00;1.50;;;10.30;91.50;;;;;;4997557;28;20224;-77
2021/01/21 00:27:29;;;;;;;2.67;1.70;;;10.40;91.40;;;;;;5012522;28;20452;-77
2021/01/21 00:29:55;;;;;;;3.40;1.67;;;10.30;91.20;;;;;;4995872;28;20210;-77
2021/01/21 00:32:21;;;;;;;3.73;1.50;;;10.30;91.40;;;;;;5001631;28;20241;-77
2021/01/21 00:34:46;;;;;;;3.70;1.37;;;10.30;91.10;;;;;;5009397;28;20201;-78
2021/01/21 00:37:12;;;;;;;2.90;1.30;;;10.30;91.50;;;;;;4999600;28;20208;-77
2021/01/21 00:39:38;;;;;;;3.07;1.80;;;10.30;91.30;;;;;;5013883;28;20201;-78
2021/01/21 00:42:04;;;;;;;2.53;1.50;;;10.20;91.70;;;;;;4995168;28;20241;-78
2021/01/21 00:44:29;;;;;;;2.70;1.67;;;10.30;91.00;;;;;;5011500;28;20249;-78
2021/01/21 00:46:55;;;;;;;4.00;1.80;;;10.30;90.90;;;;;;4995396;28;20438;-78
2021/01/21 00:49:20;;;;;;;1.50;1.10;;;10.30;90.90;;;;;;4994132;28;20277;-78
2021/01/21 00:51:46;;;;;;;1.73;1.33;;;10.30;91.00;;;;;;5001752;28;20664;-78
2021/01/21 00:54:12;;;;;;;2.10;1.20;;;10.20;91.20;;;;;;5010017;28;20194;-78
2021/01/21 00:56:37;;;;;;;3.73;1.70;;;10.30;90.90;;;;;;4976831;28;20220;-78
2021/01/21 00:59:03;;;;;;;2.90;1.00;;;10.30;90.90;;;;;;5002081;28;20200;-77
2021/01/21 01:01:29;;;;;;;2.77;1.67;;;10.20;91.00;;;;;;5007774;28;20206;-77
2021/01/21 01:03:54;;;;;;;1.77;1.40;;;10.20;91.10;;;;;;5010850;28;20214;-78
2021/01/21 01:06:21;;;;;;;1.87;1.23;;;10.10;91.40;;;;;;4998414;28;20620;-78
2021/01/21 01:08:47;;;;;;;1.70;1.07;;;10.20;90.80;;;;;;5011242;28;20764;-78
2021/01/21 01:11:12;;;;;;;2.43;1.40;;;10.30;90.80;;;;;;5006393;28;20446;-78
2021/01/21 01:13:38;;;;;;;1.77;1.27;;;10.30;90.40;;;;;;5007184;28;20221;-78
2021/01/21 01:16:04;;;;;;;1.93;1.20;;;10.20;90.80;;;;;;5001226;28;20223;-78
2021/01/21 01:18:31;;;;;;;3.08;1.70;;;10.30;90.70;;;;;;4981534;28;20246;-78
2021/01/21 01:20:57;;;;;;;1.90;1.50;;;10.20;90.80;;;;;;4998354;28;20201;-77
2021/01/21 01:23:22;;;;;;;1.33;1.23;;;10.20;90.80;;;;;;4987682;28;20854;-78
2021/01/21 01:25:48;;;;;;;1.80;1.30;;;10.30;90.50;;;;;;4993234;28;20186;-77
2021/01/21 01:28:14;;;;;;;2.70;1.63;;;10.30;90.20;;;;;;4997047;28;20364;-77
2021/01/21 01:30:40;;;;;;;2.43;1.33;;;10.30;90.30;;;;;;5011107;28;20438;-78
2021/01/21 01:33:08;;;;;;;2.20;1.17;;;10.20;90.90;;;;;;4997615;28;20216;-78
2021/01/21 01:35:34;;;;;;;1.77;1.23;;;10.20;90.60;;;;;;5000872;28;20209;-78
2021/01/21 01:37:59;;;;;;;2.20;1.20;;;10.20;91.00;;;;;;4999824;28;20261;-78
2021/01/21 01:40:25;;;;;;;2.83;1.23;;;10.30;90.30;;;;;;4992844;28;20600;-78
2021/01/21 01:42:51;;;;;;;2.53;1.50;;;10.40;90.10;;;;;;5013225;28;20221;-77
2021/01/21 01:45:16;;;;;;;8.73;1.80;;;10.40;90.10;;;;;;5013530;28;20230;-78
2021/01/21 01:47:44;;;;;;;2.00;0.90;;;10.30;90.50;;;;;;4999939;28;20228;-78
2021/01/21 01:50:11;;;;;;;2.17;1.90;;;10.30;90.60;;;;;;5010051;28;20203;-77
2021/01/21 01:52:43;;;;;;;2.33;1.20;;;10.30;90.60;;;;;;5017018;28;20217;-78
2021/01/21 01:55:10;;;;;;;2.13;1.30;;;10.30;90.80;;;;;;5019993;28;20470;-77
2021/01/21 01:57:36;;;;;;;1.40;1.13;;;10.20;90.80;;;;;;5017279;28;20455;-78
2021/01/21 02:00:03;;;;;;;2.50;1.33;;;10.30;90.70;;;;;;4980270;28;20206;-78
2021/01/21 02:02:29;;;;;;;3.10;1.50;;;10.40;90.50;;;;;;5001689;28;20542;-78
2021/01/21 02:04:55;;;;;;;3.97;1.17;;;10.30;90.90;;;;;;4999888;28;20453;-78
2021/01/21 02:07:21;;;;;;;1.50;1.23;;;10.40;91.00;;;;;;4995676;28;20216;-78
2021/01/21 02:09:48;;;;;;;3.97;1.37;;;10.40;90.70;;;;;;4995854;28;20441;-78
2021/01/21 02:12:29;;;;;;;1.80;1.38;;;10.40;90.80;;;;;;5009629;28;20215;-78
2021/01/21 02:15:27;;;;;;;1.65;1.30;;;10.30;91.40;;;;;;5006834;28;20199;-78
2021/01/21 02:18:01;;;;;;;3.55;1.45;;;10.40;91.40;;;;;;5006875;28;20219;-78
2021/01/21 02:21:05;;;;;;;3.20;1.10;;;10.40;91.80;;;;;;4991559;28;20955;-77
2021/01/21 02:23:53;;;;;;;3.00;1.42;;;10.50;91.10;;;;;;5008326;28;20469;-77
2021/01/21 02:26:25;;;;;;;2.70;1.48;;;10.50;91.20;;;;;;5001181;28;20183;-78
2021/01/21 02:29:18;;;;;;;5.45;1.33;;;10.50;91.40;;;;;;5006603;28;20231;-78
2021/01/21 02:32:09;;;;;;;2.33;1.45;;;10.50;91.20;;;;;;5007078;28;20237;-78
2021/01/21 02:34:58;;;;;;;2.10;1.47;;;10.40;91.50;;;;;;4997798;28;20197;-77
2021/01/21 02:37:25;;;;;;;3.30;1.73;;;10.40;91.70;;;;;;4995376;28;20459;-77
2021/01/21 02:39:54;;;;;;;2.50;1.43;;;10.40;92.10;;;;;;5011635;28;20665;-77
2021/01/21 02:42:20;;;;;;;3.13;1.25;;;10.30;91.90;;;;;;5003161;28;20463;-77
2021/01/21 02:44:47;;;;;;;5.00;1.30;;;10.40;91.80;;;;;;4994886;28;20214;-77
2021/01/21 02:47:14;;;;;;;2.35;1.52;;;10.50;91.50;;;;;;4995792;28;20208;-77
2021/01/21 02:49:40;;;;;;;1.40;1.00;;;10.40;91.80;;;;;;5010729;28;20571;-77
2021/01/21 02:52:20;;;;;;;4.10;1.20;;;10.30;92.10;;;;;;5007896;28;20726;-77
2021/01/21 02:55:12;;;;;;;3.33;1.30;;;10.30;92.00;;;;;;5006438;28;20240;-77
2021/01/21 02:57:56;;;;;;;1.90;1.40;;;10.30;92.50;;;;;;5000967;28;20218;-78
2021/01/21 03:00:23;;;;;;;3.65;1.40;;;10.20;92.30;;;;;;5010230;28;20196;-78
2021/01/21 03:02:55;;;;;;;1.42;1.05;;;10.10;92.50;;;;;;5001391;28;20218;-78
2021/01/21 03:05:22;;;;;;;3.33;1.37;;;10.10;93.00;;;;;;5011095;28;20208;-77
2021/01/21 03:07:48;;;;;;;3.42;1.48;;;10.20;93.50;;;;;;5001035;28;20547;-78
2021/01/21 03:10:19;;;;;;;5.47;1.10;;;10.30;93.50;;;;;;5008138;28;20203;-77
2021/01/21 03:12:57;;;;;;;2.90;1.13;;;10.40;93.50;;;;;;5005425;28;20214;-77
2021/01/21 03:15:24;;;;;;;2.00;1.20;;;10.50;92.80;;;;;;4989085;28;20214;-78
2021/01/21 03:17:50;;;;;;;6.38;1.40;;;10.40;93.00;;;;;;5005660;28;20214;-77
2021/01/21 03:20:16;;;;;;;1.47;1.03;;;10.40;92.80;;;;;;5010767;28;20195;-77
2021/01/21 03:22:42;;;;;;;9.20;1.20;;;10.40;93.00;;;;;;5013337;28;20500;-77
2021/01/21 03:25:09;;;;;;;2.72;1.70;;;10.30;93.10;;;;;;5004369;28;20729;-77
2021/01/21 03:27:34;;;;;;;2.53;1.10;;;10.40;93.00;;;;;;4990115;28;20219;-78
2021/01/21 03:30:00;;;;;;;3.03;1.40;;;10.40;93.80;;;;;;4978912;28;20697;-77
2021/01/21 03:32:26;;;;;;;1.80;1.10;;;10.20;94.60;;;;;;5013082;28;20263;-77
2021/01/21 03:34:51;;;;;;;1.00;0.93;;;10.20;95.10;;;;;;5012975;28;20221;-77
2021/01/21 03:37:17;;;;;;;2.60;1.60;;;10.20;95.00;;;;;;4981393;28;20210;-77
2021/01/21 03:39:43;;;;;;;1.17;0.80;;;10.30;94.70;;;;;;5011375;28;20249;-77
2021/01/21 03:42:08;;;;;;;6.13;1.33;;;10.30;94.50;;;;;;4993098;28;20223;-77
2021/01/21 03:44:34;;;;;;;3.53;1.00;;;10.30;94.30;;;;;;5007637;28;20210;-77
2021/01/21 03:46:59;;;;;;;1.93;0.97;;;10.30;94.70;;;;;;4998596;28;20614;-77
2021/01/21 03:49:25;;;;;;;1.63;1.00;;;10.30;95.30;;;;;;5014867;28;20201;-77
2021/01/21 03:51:51;;;;;;;1.23;0.87;;;10.20;95.20;;;;;;4996676;28;20650;-78
2021/01/21 03:54:16;;;;;;;1.50;1.00;;;10.20;95.80;;;;;;5003757;28;20558;-78
2021/01/21 03:56:42;;;;;;;6.30;1.10;;;10.10;96.20;;;;;;5001637;28;20584;-78
2021/01/21 03:59:08;;;;;;;1.17;0.87;;;10.00;96.70;;;;;;4997196;28;20202;-77
2021/01/21 04:01:33;;;;;;;2.13;0.93;;;10.00;97.10;;;;;;5014109;28;20663;-77
2021/01/21 04:03:59;;;;;;;1.27;0.97;;;9.90;97.90;;;;;;5015426;28;20226;-77
2021/01/21 04:06:25;;;;;;;1.17;0.90;;;9.90;98.00;;;;;;5017122;28;20173;-77
2021/01/21 04:08:50;;;;;;;2.10;1.07;;;9.90;98.20;;;;;;4991460;28;20296;-77
2021/01/21 04:11:16;;;;;;;1.57;1.10;;;9.90;98.20;;;;;;4998948;28;20201;-77
2021/01/21 04:13:42;;;;;;;1.53;1.00;;;9.90;98.70;;;;;;4992878;28;20276;-77
2021/01/21 04:16:07;;;;;;;1.00;0.90;;;9.90;98.70;;;;;;5004880;28;20235;-77
2021/01/21 04:18:33;;;;;;;4.20;1.40;;;9.90;98.70;;;;;;5006235;28;20248;-77
2021/01/21 04:20:59;;;;;;;1.90;0.83;;;9.90;99.00;;;;;;5007413;28;20202;-78
2021/01/21 04:23:24;;;;;;;1.03;0.93;;;9.90;99.20;;;;;;5008357;28;20704;-77
2021/01/21 04:25:50;;;;;;;1.40;1.20;;;9.90;99.60;;;;;;5003404;28;20206;-78
2021/01/21 04:28:16;;;;;;;1.57;0.60;;;9.90;99.50;;;;;;5005457;28;20579;-77
2021/01/21 04:30:42;;;;;;;1.50;0.70;;;10.00;99.10;;;;;;5012965;28;20272;-76
2021/01/21 04:33:08;;;;;;;2.33;1.00;;;10.10;98.70;;;;;;4996282;28;20215;-77
2021/01/21 04:35:34;;;;;;;1.80;1.13;;;10.10;98.80;;;;;;5009141;28;20699;-77
2021/01/21 04:37:59;;;;;;;1.40;1.10;;;10.10;99.00;;;;;;5007229;28;20217;-77
2021/01/21 04:40:26;;;;;;;1.80;0.97;;;10.20;99.10;;;;;;4992157;28;20289;-77
2021/01/21 04:42:52;;;;;;;1.00;0.77;;;10.10;99.50;;;;;;4997536;28;20671;-77
2021/01/21 04:45:19;;;;;;;0.70;0.65;;;10.00;99.90;;;;;;5016228;28;20247;-77
2021/01/21 04:47:45;;;;;;;1.90;0.77;;;10.00;99.90;;;;;;5004832;28;20673;-77
2021/01/21 04:50:12;;;;;;;1.67;0.88;;;9.90;99.90;;;;;;5016142;28;20298;-78
2021/01/21 04:52:45;;;;;;;2.35;0.90;;;10.00;99.90;;;;;;4983421;28;20283;-78
2021/01/21 04:55:21;;;;;;;1.00;0.60;;;10.00;99.90;;;;;;5017809;28;20256;-77
2021/01/21 04:58:15;;;;;;;0.93;0.70;;;9.90;99.90;;;;;;4998949;28;20979;-78
2021/01/21 05:00:41;;;;;;;1.23;0.73;;;10.00;99.90;;;;;;5005984;28;20210;-77
2021/01/21 05:03:08;;;;;;;0.98;0.82;;;9.90;99.90;;;;;;5013176;28;20205;-77
2021/01/21 05:05:34;;;;;;;1.75;1.00;;;10.00;99.90;;;;;;4999469;28;20194;-78
2021/01/21 05:08:02;;;;;;;2.47;1.00;;;9.90;99.90;;;;;;5015010;28;20209;-77
2021/01/21 05:10:28;;;;;;;1.85;1.10;;;10.00;99.90;;;;;;5014960;28;20278;-77
2021/01/21 05:12:54;;;;;;;1.48;0.82;;;10.00;99.90;;;;;;5007229;28;20221;-78
2021/01/21 05:15:19;;;;;;;1.83;1.10;;;9.90;99.90;;;;;;4995423;28;20221;-78
2021/01/21 05:17:45;;;;;;;3.73;2.30;;;9.90;99.90;;;;;;4996797;28;20221;-77
2021/01/21 05:20:11;;;;;;;1.03;0.87;;;9.80;99.90;;;;;;5001830;28;20182;-78
2021/01/21 05:22:39;;;;;;;1.17;0.87;;;9.90;99.90;;;;;;5003054;28;20452;-77
2021/01/21 05:25:05;;;;;;;3.00;0.65;;;9.80;99.90;;;;;;5008291;28;20444;-77
2021/01/21 05:27:31;;;;;;;5.25;0.98;;;9.20;99.90;;;;;;4980153;28;20210;-78
2021/01/21 05:30:02;;;;;;;10.18;1.08;;;8.50;99.90;;;;;;4986664;28;20194;-80
2021/01/21 05:32:28;;;;;;;3.97;1.02;;;8.00;99.90;;;;;;5012459;28;20706;-81
2021/01/21 05:34:54;;;;;;;5.53;1.03;;;7.60;99.90;;;;;;5001847;28;20198;-82
2021/01/21 05:37:20;;;;;;;1.87;0.67;;;7.40;99.90;;;;;;5010832;28;20206;-82
2021/01/21 05:39:46;;;;;;;2.63;0.90;;;7.20;99.90;;;;;;5016136;28;20432;-80
2021/01/21 05:42:13;;;;;;;1.00;0.50;;;7.00;99.90;;;;;;5016195;28;20453;-81
2021/01/21 05:53:10;;;;;;;3.05;0.73;;;6.80;99.90;;;;;;5345561;23;20217;-80
2021/01/21 05:55:39;;;;;;;4.30;0.95;;;6.80;99.90;;;;;;4996069;28;20588;-80
2021/01/21 05:58:10;;;;;;;1.10;0.60;;;6.70;99.90;;;;;;4997899;28;20587;-79
2021/01/21 06:00:38;;;;;;;1.95;0.73;;;6.80;99.90;;;;;;5007297;28;20423;-80
2021/01/21 06:03:04;;;;;;;1.35;0.60;;;6.80;99.90;;;;;;5002774;28;20201;-79
2021/01/21 06:05:31;;;;;;;1.80;0.73;;;6.80;99.90;;;;;;5009904;28;20251;-79
2021/01/21 06:07:57;;;;;;;4.47;0.77;;;6.80;99.90;;;;;;5005953;28;20762;-79
2021/01/21 06:10:23;;;;;;;1.10;0.57;;;6.80;99.90;;;;;;4995538;28;20297;-79
2021/01/21 06:12:51;;;;;;;4.72;0.70;;;6.80;99.90;;;;;;4996332;28;20213;-79
2021/01/21 06:15:18;;;;;;;0.77;0.45;;;6.80;99.90;;;;;;5008267;28;20213;-79
2021/01/21 06:17:45;;;;;;;2.45;1.45;;;6.80;99.90;;;;;;4999174;28;20226;-79
2021/01/21 06:20:12;;;;;;;3.70;0.80;;;6.80;99.90;;;;;;4994826;28;20253;-79
2021/01/21 06:22:43;;;;;;;1.40;0.70;;;6.80;99.90;;;;;;4993335;28;20210;-78
2021/01/21 06:25:14;;;;;;;2.60;1.00;;;6.80;99.90;;;;;;5010886;28;20285;-79
2021/01/21 06:27:41;;;;;;;4.70;1.10;;;6.80;99.90;;;;;;4997354;28;20206;-78
2021/01/21 06:30:12;;;;;;;1.95;0.75;;;6.80;99.90;;;;;;4990339;28;20229;-79
2021/01/21 06:32:47;;;;;;;3.17;0.70;;;6.80;99.90;;;;;;5006497;28;20267;-79
2021/01/21 06:35:18;;;;;;;2.50;1.17;;;6.80;99.90;;;;;;5000976;28;20201;-79
2021/01/21 06:37:49;;;;;;;1.13;0.75;;;6.80;99.90;;;;;;5009962;28;20680;-80
2021/01/21 06:40:17;;;;;;;1.40;0.50;;;6.80;99.90;;;;;;4992369;28;20202;-80
2021/01/21 06:42:55;;;;;;;1.38;0.70;;;6.80;99.90;;;;;;5001801;28;20198;-80
2021/01/21 06:45:21;;;;;;;2.08;0.77;;;6.80;99.90;;;;;;5008009;28;20316;-80
2021/01/21 06:47:48;;;;;;;0.50;0.40;;;6.80;99.90;;;;;;5012499;28;20631;-80
2021/01/21 06:50:14;;;;;;;1.13;0.50;;;6.80;99.90;;;;;;4983695;28;20209;-80
2021/01/21 06:52:40;;;;;;;0.60;0.50;;;6.80;99.90;;;;;;4994920;28;20210;-79
2021/01/21 06:55:10;;;;;;;0.93;0.50;;;6.70;99.90;;;;;;4996123;28;20754;-79
2021/01/21 06:57:36;;;;;;;1.10;0.45;;;6.70;99.90;;;;;;5004215;28;20280;-79
2021/01/21 07:00:05;;;;;;;0.90;0.53;;;6.70;99.90;;;;;;5008469;28;20163;-78
2021/01/21 07:02:52;;;;;;;1.02;0.50;;;6.70;99.90;;;;;;5008586;28;20210;-79
2021/01/21 07:05:23;;;;;;;2.97;0.93;;;6.70;99.90;;;;;;5002321;28;20277;-79
2021/01/21 07:08:01;;;;;;;1.65;0.68;;;6.70;99.90;;;;;;5007579;28;20324;-78
2021/01/21 07:10:41;;;;;;;1.00;0.52;;;6.70;99.90;;;;;;5003605;28;20648;-78
2021/01/21 07:13:13;;;;;;;1.10;0.50;;;6.70;99.90;;;;;;5009117;28;20209;-78
2021/01/21 07:15:45;;;;;;;0.95;0.50;;;6.70;99.90;;;;;;5001289;28;20683;-78
2021/01/21 07:18:16;;;;;;;1.15;0.50;;;6.70;99.90;;;;;;5005383;28;20214;-78
2021/01/21 07:21:07;;;;;;;2.90;0.70;;;6.70;99.90;;;;;;4998392;28;20240;-79
2021/01/21 07:23:46;;;;;;;3.55;0.60;;;6.70;99.90;;;;;;4991800;28;20245;-78
2021/01/21 07:26:32;;;;;;;2.67;0.60;;;6.70;99.90;;;;;;5001178;28;20198;-78
2021/01/21 07:29:03;;;;;;;1.60;0.60;;;6.70;99.90;;;;;;5002107;28;20210;-79
2021/01/21 07:31:49;;;;;;;3.53;0.80;;;6.70;99.90;;;;;;5002973;28;20198;-78
2021/01/21 07:34:29;;;;;;;2.47;1.08;;;6.80;99.90;;;;;;5006574;28;20206;-78
2021/01/21 07:37:11;;;;;;;3.08;0.70;;;6.70;99.90;;;;;;4991849;28;20198;-78
2021/01/21 07:39:59;;;;;;;3.58;1.05;;;6.70;99.90;;;;;;5011239;28;20509;-78
2021/01/21 07:42:36;;;;;;;10.30;1.30;;;6.70;99.90;;;;;;4995489;28;20237;-79
2021/01/21 07:45:22;;;;;;;2.60;0.85;;;6.60;99.90;;;;;;4993685;28;20218;-80
2021/01/21 07:47:52;;;;;;;2.45;0.82;;;6.60;99.90;;;;;;4993364;28;20566;-80
2021/01/21 07:50:33;;;;;;;3.40;0.90;;;6.70;99.90;;;;;;4994370;28;20171;-79
2021/01/21 07:52:59;;;;;;;4.25;1.75;;;6.60;99.90;;;;;;4993866;28;20218;-77
2021/01/21 07:55:32;;;;;;;2.33;0.90;;;6.70;99.90;;;;;;4998105;28;20238;-80
2021/01/21 07:58:39;;;;;;;1.88;0.77;;;6.70;99.90;;;;;;5009595;28;20217;-80
2021/01/21 08:01:12;;;;;;;3.33;1.20;;;6.70;99.90;;;;;;5002285;28;20198;-78
2021/01/21 08:03:40;;;;;;;1.83;0.80;;;6.90;99.90;;;;;;5003956;28;20206;-78
2021/01/21 08:06:11;;;;;;;8.98;1.20;;;7.00;99.90;;;;;;5011440;28;20276;-78
2021/01/21 08:08:37;;;;;;;3.95;0.88;;;7.00;99.90;;;;;;4993363;28;20241;-78
2021/01/21 08:11:05;;;;;;;3.00;0.95;;;6.90;99.90;;;;;;5011715;28;20200;-78
2021/01/21 08:13:31;;;;;;;3.60;1.23;;;6.80;99.90;;;;;;5010957;28;20222;-79
2021/01/21 08:15:57;;;;;;;4.00;0.90;;;6.80;99.90;;;;;;5011663;28;20208;-78
2021/01/21 08:18:23;;;;;;;2.30;1.00;;;6.70;99.90;;;;;;5010668;28;20982;-78
2021/01/21 08:20:49;;;;;;;2.53;0.80;;;6.60;99.90;;;;;;5011341;28;20162;-78
2021/01/21 08:23:16;;;;;;;2.77;1.00;;;6.60;99.90;;;;;;5010363;28;20464;-78
2021/01/21 08:25:43;;;;;;;4.05;1.25;;;6.60;99.90;;;;;;5011418;28;20679;-77
2021/01/21 08:28:10;;;;;;;2.95;1.00;;;6.60;99.90;;;;;;5010493;28;20240;-78
2021/01/21 08:30:36;;;;;;;5.03;1.20;;;6.60;99.90;;;;;;5011397;28;20249;-78
2021/01/21 08:33:26;;;;;;;4.32;1.20;;;6.60;99.90;;;;;;5010661;28;20233;-78
2021/01/21 08:36:01;;;;;;;6.07;1.05;;;6.60;99.90;;;;;;5011163;28;20190;-78
2021/01/21 08:38:36;;;;;;;4.50;1.13;;;6.60;99.90;;;;;;5010928;28;20209;-78
2021/01/21 08:41:03;;;;;;;6.30;1.30;;;6.60;99.90;;;;;;5011156;28;20165;-78
2021/01/21 08:43:30;;;;;;;4.38;1.10;;;6.70;99.90;;;;;;5011415;28;20212;-79
2021/01/21 08:45:56;;;;;;;9.10;1.10;;;6.70;99.90;;;;;;5011329;28;20173;-79
2021/01/21 08:48:29;;;;;;;6.07;1.58;;;6.70;99.90;;;;;;5011710;28;20210;-79
2021/01/21 08:50:55;;;;;;;2.90;1.23;;;6.70;99.90;;;;;;5012798;28;20524;-79
2021/01/21 08:53:22;;;;;;;1.73;1.02;;;6.70;99.90;;;;;;5011533;28;20232;-79
2021/01/21 08:55:53;;;;;;;3.58;1.15;;;6.80;99.90;;;;;;5011039;28;20201;-79
2021/01/21 08:58:31;;;;;;;5.25;1.33;;;6.80;99.90;;;;;;5010517;28;20320;-79
2021/01/21 09:01:11;;;;;;;5.93;1.45;;;6.90;99.90;;;;;;5012360;28;20707;-79
2021/01/21 09:03:45;;;;;;;5.00;1.30;;;6.90;99.90;;;;;;5011354;28;20692;-79
2021/01/21 09:06:12;;;;;;;2.70;0.80;;;7.10;99.90;;;;;;5010168;28;20181;-80
2021/01/21 09:08:51;;;;;;;3.05;1.02;;;7.20;99.90;;;;;;5007386;28;20564;-79
2021/01/21 09:11:38;;;;;;;4.38;1.35;;;7.20;99.90;;;;;;4993553;28;20159;-80
2021/01/21 09:14:14;;;;;;;2.45;1.42;;;7.20;99.90;;;;;;4994490;28;20260;-78
2021/01/21 09:16:44;;;;;;;4.75;1.42;;;7.20;99.90;;;;;;4999112;28;20205;-78
2021/01/21 09:19:14;;;;;;;4.18;1.10;;;7.20;99.90;;;;;;5003231;28;20320;-78
2021/01/21 09:22:24;;;;;;;3.67;1.60;;;7.10;99.90;;;;;;4996113;28;20167;-79
2021/01/21 09:25:05;;;;;;;4.57;1.30;;;7.20;99.90;;;;;;4993053;28;20214;-78
2021/01/21 09:27:33;;;;;;;3.28;1.10;;;7.20;99.90;;;;;;4998288;28;20264;-78
2021/01/21 09:30:13;;;;;;;4.15;1.75;;;7.20;99.90;;;;;;4999630;28;20254;-79
2021/01/21 09:32:41;;;;;;;5.00;0.82;;;7.30;99.90;;;;;;4996028;28;20265;-79
2021/01/21 09:35:13;;;;;;;2.47;1.25;;;7.30;99.90;;;;;;4995792;28;20245;-78
2021/01/21 09:37:59;;;;;;;2.13;0.95;;;7.30;99.90;;;;;;5821425;23;20191;-78
2021/01/21 09:40:35;;;;;;;5.15;1.38;;;7.40;99.90;;;;;;5018950;28;20685;-77
2021/01/21 09:43:03;;;;;;;2.42;0.85;;;7.50;99.90;;;;;;5023391;28;20217;-78
2021/01/21 09:45:30;;;;;;;8.10;1.30;;;7.50;99.90;;;;;;5021249;28;20612;-77
2021/01/21 09:47:57;;;;;;;5.07;1.58;;;7.50;99.90;;;;;;5014376;28;20624;-77
2021/01/21 09:50:24;;;;;;;5.40;1.60;;;7.50;99.90;;;;;;5015276;28;20221;-77
2021/01/21 09:52:51;;;;;;;6.75;1.65;;;7.50;99.90;;;;;;5019786;28;20262;-78
2021/01/21 09:55:17;;;;;;;4.03;1.17;;;7.50;99.90;;;;;;5025530;28;20228;-77
2021/01/21 09:57:43;;;;;;;2.03;0.63;;;7.50;99.90;;;;;;5028708;28;20655;-77
2021/01/21 10:00:12;;;;;;;8.02;1.42;;;7.50;99.90;;;;;;5022817;28;20169;-77
2021/01/21 10:02:38;;;;;;;6.25;1.30;;;7.60;99.90;;;;;;5022005;28;20205;-77
2021/01/21 10:05:05;;;;;;;1.95;0.95;;;7.60;99.90;;;;;;5014861;28;20198;-77
2021/01/21 10:07:30;;;;;;;5.57;1.27;;;7.70;99.90;;;;;;5030107;28;20206;-77
2021/01/21 10:09:56;;;;;;;2.83;1.30;;;7.70;99.90;;;;;;5014156;28;20663;-78
2021/01/21 10:12:22;;;;;;;4.60;0.83;;;7.80;99.70;;;;;;4998169;28;20205;-78
2021/01/21 10:14:47;;;;;;;3.93;1.07;;;7.80;99.60;;;;;;5029117;28;20186;-78
2021/01/21 10:17:13;;;;;;;2.10;1.00;;;7.80;99.50;;;;;;5034686;28;20298;-78
2021/01/21 10:19:39;;;;;;;3.83;0.90;;;7.80;99.50;;;;;;4998775;28;20267;-78
2021/01/21 10:22:05;;;;;;;3.50;1.00;;;7.90;99.20;;;;;;5014109;28;20437;-79
2021/01/21 10:24:32;;;;;;;2.33;1.00;;;7.90;98.00;;;;;;5018469;28;20201;-79
2021/01/21 10:26:57;;;;;;;3.72;1.33;;;7.90;98.60;;;;;;5034421;28;20216;-79
2021/01/21 10:29:23;;;;;;;2.37;0.87;;;7.90;98.80;;;;;;5024907;28;20259;-77
2021/01/21 10:31:49;;;;;;;4.00;1.23;;;7.90;98.00;;;;;;5022466;28;20181;-77
2021/01/21 10:34:15;;;;;;;2.97;1.00;;;7.90;98.20;;;;;;5026508;28;20652;-77
2021/01/21 10:36:41;;;;;;;7.00;1.20;;;7.90;98.20;;;;;;5016110;28;20205;-77
2021/01/21 10:39:07;;;;;;;1.93;0.80;;;7.90;98.00;;;;;;5030015;28;20208;-77
2021/01/21 10:41:33;;;;;;;4.40;0.82;;;7.90;98.00;;;;;;5035091;28;20420;-79
2021/01/21 10:43:59;;;;;;;2.03;0.93;;;7.90;98.00;;;;;;5033920;28;20205;-78
2021/01/21 10:46:25;;;;;;;3.90;1.10;;;7.90;97.70;;;;;;5017892;28;20421;-78
2021/01/21 10:48:51;;;;;;;3.47;1.30;;;7.90;97.60;;;;;;5008274;28;20467;-78
2021/01/21 10:51:16;;;;;;;2.40;1.48;;;7.90;97.00;;;;;;5019788;28;20174;-77
2021/01/21 10:53:42;;;;;;;3.73;1.17;;;7.80;97.20;;;;;;5029323;28;20217;-78
2021/01/21 10:56:08;;;;;;;3.70;1.13;;;7.90;98.00;;;;;;5035254;28;20247;-79
2021/01/21 10:58:34;;;;;;;2.23;1.50;;;7.90;97.70;;;;;;5030855;28;20210;-78
2021/01/21 11:00:59;;;;;;;5.83;1.50;;;7.90;98.00;;;;;;5029647;28;20972;-78
2021/01/21 11:03:25;;;;;;;6.57;2.57;;;7.90;97.30;;;;;;5031416;28;20245;-77
2021/01/21 11:05:51;;;;;;;2.37;1.27;;;7.90;97.60;;;;;;5014334;28;20667;-78
2021/01/21 11:08:17;;;;;;;2.47;1.87;;;7.90;97.30;;;;;;5017088;28;20297;-77
2021/01/21 11:10:43;;;;;;;2.30;1.47;;;8.00;97.20;;;;;;5022212;28;20185;-77
2021/01/21 11:13:16;;;;;;;3.90;0.65;;;8.00;96.80;;;;;;5009509;28;20277;-78
2021/01/21 11:15:42;;;;;;;1.73;0.90;;;8.00;96.60;;;;;;5031849;28;21173;-78
2021/01/21 11:18:07;;;;;;;4.47;1.10;;;8.00;96.90;;;;;;5015281;28;20221;-78
2021/01/21 11:20:34;;;;;;;2.60;1.47;;;8.10;96.90;;;;;;5013945;28;20275;-79
2021/01/21 11:23:01;;;;;;;0.90;0.63;;;8.10;96.60;;;;;;5022849;28;20300;-78
2021/01/21 11:25:26;;;;;;;3.88;0.90;;;8.10;96.50;;;;;;5010654;28;20577;-77
2021/01/21 11:27:52;;;;;;;2.77;0.90;;;8.20;96.30;;;;;;5002431;28;20317;-78
2021/01/21 11:30:19;;;;;;;4.27;0.80;;;8.20;96.10;;;;;;4998668;28;20190;-78
2021/01/21 11:32:44;;;;;;;3.03;1.10;;;8.20;96.00;;;;;;4999606;28;20209;-77
2021/01/21 11:35:10;;;;;;;3.67;1.00;;;8.30;96.40;;;;;;5016835;28;20212;-78
2021/01/21 11:37:37;;;;;;;3.47;1.00;;;8.30;95.50;;;;;;5013037;28;20687;-78
2021/01/21 11:40:07;;;;;;;2.08;0.80;;;8.40;95.30;;;;;;5003109;28;20452;-78
2021/01/21 11:42:33;;;;;;;1.65;0.60;;;8.40;95.40;;;;;;5019388;28;20273;-78
2021/01/21 11:45:01;;;;;;;3.30;1.07;;;8.50;94.70;;;;;;5036773;28;20231;-78
2021/01/21 11:47:28;;;;;;;6.63;1.10;;;8.50;94.80;;;;;;5026585;28;20229;-77
2021/01/21 11:49:54;;;;;;;2.45;1.40;;;8.50;94.40;;;;;;5018319;28;20624;-78
2021/01/21 11:52:20;;;;;;;6.55;1.33;;;8.50;94.30;;;;;;5031307;28;20205;-78
2021/01/21 11:54:46;;;;;;;1.20;0.80;;;8.50;94.40;;;;;;5030329;28;20212;-77
2021/01/21 11:57:12;;;;;;;2.53;0.90;;;8.40;93.70;;;;;;5015130;28;20468;-79
2021/01/21 11:59:38;;;;;;;4.65;1.40;;;8.40;94.10;;;;;;5033672;28;20443;-78
2021/01/21 12:02:04;;;;;;;3.03;1.03;;;8.40;94.20;;;;;;5024160;28;20221;-78
2021/01/21 12:04:29;;;;;;;1.90;0.97;;;8.40;94.30;;;;;;5029346;28;20193;-78
2021/01/21 12:06:55;;;;;;;2.07;1.00;;;8.40;94.10;;;;;;5018895;28;20185;-78
2021/01/21 12:09:21;;;;;;;5.63;1.20;;;8.40;94.10;;;;;;5029002;28;20540;-77
2021/01/21 12:11:47;;;;;;;3.13;1.33;;;8.40;94.50;;;;;;5003200;28;20446;-77
2021/01/21 12:14:12;;;;;;;3.07;1.10;;;8.50;94.20;;;;;;5034131;28;20186;-78
2021/01/21 12:16:38;;;;;;;1.60;0.93;;;8.50;93.80;;;;;;4998732;28;20209;-78
2021/01/21 12:19:04;;;;;;;3.67;1.07;;;8.60;93.20;;;;;;5029157;28;20485;-78
2021/01/21 12:21:33;;;;;;;2.17;1.07;;;8.60;93.40;;;;;;5031143;28;20700;-78
2021/01/21 12:23:59;;;;;;;5.72;1.13;;;8.60;93.50;;;;;;5031308;28;20205;-77
2021/01/21 12:26:25;;;;;;;4.35;1.63;;;8.70;93.30;;;;;;5036403;28;20674;-78
2021/01/21 12:28:51;;;;;;;3.77;1.03;;;8.70;92.90;;;;;;5032670;28;20212;-78
2021/01/21 12:31:17;;;;;;;1.93;0.90;;;8.70;93.00;;;;;;5028158;28;20197;-78
2021/01/21 12:33:43;;;;;;;2.50;1.17;;;8.70;93.10;;;;;;5018755;28;20381;-78
2021/01/21 12:36:09;;;;;;;1.67;0.90;;;8.70;92.50;;;;;;5017278;28;20205;-78
2021/01/21 12:38:34;;;;;;;5.32;1.70;;;8.70;92.60;;;;;;5030594;28;20260;-77
2021/01/21 12:41:00;;;;;;;3.83;1.20;;;8.60;92.60;;;;;;5030517;28;20674;-77
2021/01/21 12:43:26;;;;;;;3.40;1.20;;;8.70;92.80;;;;;;5006169;28;20211;-77
2021/01/21 12:45:52;;;;;;;3.33;1.30;;;8.70;92.30;;;;;;5002245;28;20204;-77
2021/01/21 12:48:18;;;;;;;4.10;0.70;;;8.70;92.20;;;;;;5030824;28;20459;-78
2021/01/21 12:50:44;;;;;;;3.43;0.93;;;8.70;91.60;;;;;;5024357;28;20207;-77
2021/01/21 12:53:10;;;;;;;4.38;1.17;;;8.70;92.30;;;;;;5005328;28;20464;-78
2021/01/21 12:55:36;;;;;;;3.30;1.00;;;8.80;92.20;;;;;;5016268;28;20205;-78
2021/01/21 12:58:04;;;;;;;4.03;1.10;;;8.80;92.40;;;;;;5025079;28;20208;-78
2021/01/21 13:00:30;;;;;;;4.28;0.90;;;8.70;91.40;;;;;;5034355;28;20182;-78
2021/01/21 13:02:55;;;;;;;3.03;1.45;;;8.70;92.20;;;;;;5015398;28;20202;-78
2021/01/21 13:05:21;;;;;;;2.80;0.93;;;8.70;92.30;;;;;;5018510;28;20622;-77
2021/01/21 13:07:47;;;;;;;2.57;1.20;;;8.80;91.70;;;;;;5023878;28;20208;-78
2021/01/21 13:10:15;;;;;;;6.33;1.33;;;8.80;91.80;;;;;;5030084;28;20492;-78